createdAt,value
2023-08-07T00:01:18.805Z,100.00
2023-08-07T00:04:21.565Z,100.00
2023-08-07T00:07:25.790Z,100.00
2023-08-07T00:10:28.659Z,100.00
2023-08-07T00:13:31.102Z,100.00
2023-08-07T00:16:33.724Z,100.00
2023-08-07T00:19:36.449Z,100.00
2023-08-07T00:22:39.153Z,100.00
2023-08-07T00:25:41.895Z,100.00
2023-08-07T00:28:44.840Z,100.00
2023-08-07T00:31:47.448Z,100.00
2023-08-07T00:34:50.726Z,100.00
2023-08-07T00:37:53.370Z,100.00
2023-08-07T00:40:56.200Z,100.00
2023-08-07T00:43:58.777Z,100.00
2023-08-07T00:47:01.466Z,100.00
2023-08-07T00:50:05.468Z,100.00
2023-08-07T00:53:08.158Z,100.00
2023-08-07T00:56:11.165Z,100.00
2023-08-07T00:59:16.034Z,100.00
2023-08-07T01:02:18.626Z,100.00
2023-08-07T01:05:25.307Z,100.00
2023-08-07T01:08:28.822Z,100.00
2023-08-07T01:11:45.007Z,100.00
2023-08-07T01:14:56.437Z,100.00
2023-08-07T01:18:00.711Z,100.00
2023-08-07T01:21:04.860Z,100.00
2023-08-07T01:24:07.587Z,100.00
2023-08-07T01:27:38.377Z,100.00
2023-08-07T01:30:44.132Z,100.00
2023-08-07T01:34:03.247Z,100.00
2023-08-07T01:37:08.685Z,100.00
2023-08-07T01:40:13.511Z,100.00
2023-08-07T01:43:16.204Z,100.00
2023-08-07T01:46:19.607Z,100.00
2023-08-07T01:49:24.024Z,100.00
2023-08-07T01:52:26.828Z,100.00
2023-08-07T01:55:30.319Z,100.00
2023-08-07T01:58:33.129Z,100.00
2023-08-07T02:01:35.755Z,100.00
2023-08-07T02:04:38.658Z,100.00
2023-08-07T02:07:42.274Z,100.00
2023-08-07T02:10:45.076Z,100.00
2023-08-07T02:13:47.686Z,100.00
2023-08-07T02:16:50.180Z,100.00
2023-08-07T02:19:52.986Z,100.00
2023-08-07T02:22:55.610Z,100.00
2023-08-07T02:25:58.294Z,100.00
2023-08-07T02:29:00.945Z,100.00
2023-08-07T02:32:04.089Z,100.00
2023-08-07T02:35:07.930Z,100.00
2023-08-07T02:38:11.085Z,100.00
2023-08-07T02:41:13.923Z,100.00
2023-08-07T02:44:18.530Z,100.00
2023-08-07T02:47:21.004Z,100.00
2023-08-07T02:50:25.731Z,100.00
2023-08-07T02:53:28.410Z,100.00
2023-08-07T02:56:31.257Z,100.00
2023-08-07T02:59:33.930Z,100.00
2023-08-07T03:02:36.479Z,100.00
2023-08-07T03:05:39.264Z,100.00
2023-08-07T03:08:42.166Z,100.00
2023-08-07T03:11:44.628Z,100.00
2023-08-07T03:14:47.486Z,100.00
2023-08-07T03:17:49.917Z,100.00
2023-08-07T03:20:52.839Z,100.00
2023-08-07T03:23:55.468Z,100.00
2023-08-07T03:26:58.190Z,100.00
2023-08-07T03:30:01.324Z,100.00
2023-08-07T03:33:05.936Z,100.00
2023-08-07T03:36:08.600Z,100.00
2023-08-07T03:39:13.142Z,100.00
2023-08-07T03:42:16.538Z,100.00
2023-08-07T03:45:21.722Z,100.00
2023-08-07T03:48:24.280Z,100.00
2023-08-07T03:51:27.380Z,100.00
2023-08-07T03:54:30.847Z,100.00
2023-08-07T03:57:34.779Z,100.00
2023-08-07T04:00:37.730Z,100.00
2023-08-07T04:03:40.278Z,100.00
2023-08-07T04:06:44.722Z,100.00
2023-08-07T04:09:47.546Z,100.00
2023-08-07T04:12:50.919Z,100.00
2023-08-07T04:15:53.666Z,100.00
2023-08-07T04:18:56.126Z,100.00
2023-08-07T04:21:58.776Z,100.00
2023-08-07T04:25:01.558Z,100.00
2023-08-07T04:28:04.516Z,100.00
2023-08-07T04:31:07.573Z,100.00
2023-08-07T04:34:10.043Z,100.00
2023-08-07T04:37:12.730Z,100.00
2023-08-07T04:40:15.572Z,100.00
2023-08-07T04:43:21.835Z,100.00
2023-08-07T04:46:24.632Z,100.00
2023-08-07T04:49:27.050Z,100.00
2023-08-07T04:52:29.605Z,100.00
2023-08-07T04:55:32.950Z,100.00
2023-08-07T04:58:35.370Z,100.00
2023-08-07T05:02:50.261Z,100.00
2023-08-07T05:05:59.470Z,100.00
2023-08-07T05:09:02.322Z,100.00
2023-08-07T05:12:06.361Z,100.00
2023-08-07T05:15:09.116Z,100.00
2023-08-07T05:18:11.551Z,100.00
2023-08-07T05:21:14.165Z,100.00
2023-08-07T05:24:17.078Z,100.00
2023-08-07T05:27:19.746Z,100.00
2023-08-07T05:30:22.244Z,100.00
2023-08-07T05:33:25.010Z,100.00
2023-08-07T05:36:27.580Z,100.00
2023-08-07T05:39:30.564Z,100.00
2023-08-07T05:42:33.069Z,100.00
2023-08-07T05:45:35.534Z,100.00
2023-08-07T05:48:37.961Z,100.00
2023-08-07T05:51:40.566Z,100.00
2023-08-07T05:54:43.094Z,100.00
2023-08-07T05:57:45.565Z,100.00
2023-08-07T06:00:48.150Z,100.00
2023-08-07T06:03:50.623Z,100.00
2023-08-07T06:06:53.274Z,100.00
2023-08-07T06:09:55.994Z,100.00
2023-08-07T06:12:59.030Z,100.00
2023-08-07T06:16:01.657Z,100.00
2023-08-07T06:19:10.729Z,100.00
2023-08-07T06:22:19.958Z,100.00
2023-08-07T06:25:22.560Z,100.00
2023-08-07T06:28:25.562Z,100.00
2023-08-07T06:31:28.144Z,100.00
2023-08-07T06:34:30.765Z,100.00
2023-08-07T06:37:33.197Z,100.00
2023-08-07T06:40:39.269Z,100.00
2023-08-07T06:43:41.802Z,100.00
2023-08-07T06:46:44.281Z,100.00
2023-08-07T06:49:46.728Z,100.00
2023-08-07T06:52:49.617Z,100.00
2023-08-07T06:55:52.921Z,100.00
2023-08-07T06:58:56.339Z,100.00
2023-08-07T07:01:59.224Z,100.00
2023-08-07T07:05:01.969Z,100.00
2023-08-07T07:08:04.633Z,100.00
2023-08-07T07:11:08.422Z,98.67
2023-08-07T07:14:11.850Z,100.00
2023-08-07T07:17:14.418Z,100.00
2023-08-07T07:20:16.885Z,100.00
2023-08-07T07:23:19.447Z,100.00
2023-08-07T07:26:22.632Z,96.83
2023-08-07T07:29:25.110Z,92.67
2023-08-07T07:32:27.874Z,91.56
2023-08-07T07:35:30.391Z,89.66
2023-08-07T07:38:32.948Z,92.43
2023-08-07T07:41:35.511Z,86.59
2023-08-07T07:44:39.788Z,92.47
2023-08-07T07:47:42.270Z,94.52
2023-08-07T07:50:44.653Z,95.69
2023-08-07T07:54:40.043Z,91.99
2023-08-07T07:57:42.655Z,98.60
2023-08-07T08:00:45.101Z,84.86
2023-08-07T08:03:47.788Z,86.62
2023-08-07T08:06:50.334Z,88.54
2023-08-07T08:09:53.191Z,88.10
2023-08-07T08:12:57.001Z,88.18
2023-08-07T08:15:59.704Z,89.08
2023-08-07T08:19:03.327Z,92.76
2023-08-07T08:22:06.141Z,84.96
2023-08-07T08:25:09.418Z,89.20
2023-08-07T08:28:11.905Z,85.45
2023-08-07T08:31:14.398Z,84.14
2023-08-07T08:34:16.911Z,90.46
2023-08-07T08:37:19.342Z,85.01
2023-08-07T08:40:22.044Z,86.08
2023-08-07T08:43:26.350Z,84.22
2023-08-07T08:46:30.803Z,68.68
2023-08-07T08:49:48.703Z,75.50
2023-08-07T08:52:52.819Z,77.76
2023-08-07T08:55:55.412Z,75.55
2023-08-07T08:59:01.976Z,83.39
2023-08-07T09:02:04.821Z,90.60
2023-08-07T09:05:07.851Z,90.82
2023-08-07T09:08:11.158Z,99.09
2023-08-07T09:11:14.896Z,89.84
2023-08-07T09:14:18.709Z,86.41
2023-08-07T09:17:33.271Z,81.67
2023-08-07T09:20:37.219Z,82.61
2023-08-07T09:23:39.612Z,81.98
2023-08-07T09:26:46.328Z,85.38
2023-08-07T09:29:49.598Z,90.14
2023-08-07T09:32:52.006Z,83.71
2023-08-07T09:36:07.241Z,87.78
2023-08-07T09:39:09.841Z,89.89
2023-08-07T09:42:17.999Z,87.20
2023-08-07T09:45:25.596Z,86.91
2023-08-07T09:48:29.086Z,87.75
2023-08-07T09:51:43.842Z,85.00
2023-08-07T09:54:46.531Z,83.22
2023-08-07T09:57:49.817Z,82.74
2023-08-07T10:01:00.303Z,81.71
2023-08-07T10:04:06.156Z,81.37
2023-08-07T10:07:08.709Z,82.82
2023-08-07T10:10:11.801Z,83.49
2023-08-07T10:13:16.070Z,82.66
2023-08-07T10:16:21.059Z,81.42
2023-08-07T10:19:23.967Z,82.43
2023-08-07T10:22:28.310Z,78.54
2023-08-07T10:25:31.709Z,74.18
2023-08-07T10:28:39.053Z,76.87
2023-08-07T10:31:45.134Z,78.81
2023-08-07T10:34:48.428Z,82.53
2023-08-07T10:37:53.363Z,79.78
2023-08-07T10:41:15.291Z,75.84
2023-08-07T10:44:25.786Z,76.48
2023-08-07T10:47:35.518Z,82.00
2023-08-07T10:50:58.032Z,78.05
2023-08-07T10:54:02.694Z,77.93
2023-08-07T10:57:10.894Z,79.43
2023-08-07T11:00:14.009Z,77.48
2023-08-07T11:03:29.593Z,78.89
2023-08-07T11:06:34.093Z,77.27
2023-08-07T11:09:37.011Z,76.16
2023-08-07T11:12:39.515Z,75.74
2023-08-07T11:15:42.101Z,75.10
2023-08-07T11:18:44.806Z,76.63
2023-08-07T11:21:48.931Z,71.57
2023-08-07T11:24:52.525Z,72.05
2023-08-07T11:27:55.252Z,71.36
2023-08-07T11:30:58.376Z,74.60
2023-08-07T11:34:03.711Z,78.80
2023-08-07T11:37:06.351Z,76.55
2023-08-07T11:40:09.542Z,76.71
2023-08-07T11:43:12.110Z,76.59
2023-08-07T11:46:16.538Z,80.84
2023-08-07T11:49:19.676Z,81.73
2023-08-07T11:52:23.976Z,77.64
2023-08-07T11:55:26.696Z,79.80
2023-08-07T11:58:36.042Z,73.12
2023-08-07T12:01:39.779Z,75.88
2023-08-07T12:04:42.671Z,75.45
2023-08-07T12:07:45.105Z,75.69
2023-08-07T12:10:56.870Z,71.42
2023-08-07T12:14:02.665Z,73.98
2023-08-07T12:17:05.735Z,78.48
2023-08-07T12:20:11.776Z,79.66
2023-08-07T12:23:18.003Z,79.85
2023-08-07T12:26:20.721Z,79.94
2023-08-07T12:29:24.731Z,77.45
2023-08-07T12:32:27.287Z,73.48
2023-08-07T12:35:30.018Z,71.41
2023-08-07T12:39:02.061Z,74.93
2023-08-07T12:49:16.129Z,74.91
2023-08-07T12:58:30.547Z,72.61
2023-08-07T13:01:33.204Z,71.67
2023-08-07T13:04:37.529Z,75.73
2023-08-07T13:07:40.587Z,73.65
2023-08-07T13:10:43.271Z,72.08
2023-08-07T13:13:45.756Z,73.91
2023-08-07T13:16:50.621Z,74.34
2023-08-07T13:19:53.176Z,75.74
2023-08-07T13:22:57.630Z,74.59
2023-08-07T13:26:00.123Z,72.08
2023-08-07T13:29:02.785Z,69.57
2023-08-07T13:32:10.693Z,71.34
2023-08-07T13:35:13.278Z,76.51
2023-08-07T13:38:17.463Z,76.67
2023-08-07T13:41:19.904Z,72.78
2023-08-07T13:44:42.563Z,73.64
2023-08-07T13:47:45.270Z,75.87
2023-08-07T13:50:50.236Z,73.42
2023-08-07T13:53:53.841Z,73.66
2023-08-07T13:58:32.068Z,75.12
2023-08-07T14:01:36.145Z,75.49
2023-08-07T14:04:38.634Z,74.64
2023-08-07T14:07:41.152Z,78.06
2023-08-07T14:10:43.649Z,74.83
2023-08-07T14:13:47.524Z,75.21
2023-08-07T14:16:50.091Z,75.30
2023-08-07T14:19:52.494Z,74.80
2023-08-07T14:23:02.895Z,74.44
2023-08-07T14:26:11.379Z,73.97
2023-08-07T14:29:14.859Z,74.60
2023-08-07T14:32:17.354Z,77.18
2023-08-07T14:35:23.455Z,76.51
2023-08-07T14:38:25.857Z,75.61
2023-08-07T14:41:28.551Z,78.56
2023-08-07T14:44:31.062Z,75.37
2023-08-07T14:47:33.782Z,73.87
2023-08-07T14:50:38.702Z,75.21
2023-08-07T14:53:41.733Z,77.07
2023-08-07T14:56:44.537Z,76.57
2023-08-07T14:59:46.998Z,78.18
2023-08-07T15:02:50.170Z,80.91
2023-08-07T15:05:52.762Z,81.91
2023-08-07T15:08:55.183Z,82.04
2023-08-07T15:11:58.080Z,80.77
2023-08-07T15:15:00.775Z,80.17
2023-08-07T15:18:06.703Z,80.14
2023-08-07T15:21:09.221Z,81.52
2023-08-07T15:24:11.964Z,80.58
2023-08-07T15:27:14.457Z,82.65
2023-08-07T15:30:17.112Z,82.36
2023-08-07T15:33:20.849Z,86.67
2023-08-07T15:36:25.380Z,86.01
2023-08-07T15:39:28.476Z,85.48
2023-08-07T15:42:31.109Z,86.31
2023-08-07T15:45:33.603Z,87.23
2023-08-07T15:48:36.961Z,91.76
2023-08-07T15:51:39.808Z,92.31
